createdAt,value
2022-11-02T00:03:10.993Z,1.00
2022-11-02T00:09:14.749Z,0.98
2022-11-02T00:15:20.087Z,1.23
2022-11-02T00:21:23.799Z,1.25
2022-11-02T00:27:27.425Z,0.80
2022-11-02T00:33:32.647Z,0.82
2022-11-02T00:39:36.186Z,1.38
2022-11-02T00:45:39.654Z,0.90
2022-11-02T00:51:44.564Z,1.15
2022-11-02T00:57:48.126Z,0.80
2022-11-02T01:03:51.599Z,0.90
2022-11-02T01:09:56.658Z,1.20
2022-11-02T01:16:00.214Z,1.20
2022-11-02T01:22:05.857Z,1.17
2022-11-02T01:28:11.045Z,1.20
2022-11-02T01:34:14.506Z,1.05
2022-11-02T01:40:18.118Z,1.10
2022-11-02T01:46:24.449Z,0.90
2022-11-02T01:52:29.974Z,1.90
2022-11-02T01:58:35.096Z,1.50
2022-11-02T02:04:40.247Z,1.25
2022-11-02T02:10:43.802Z,1.48
2022-11-02T02:17:08.404Z,2.03
2022-11-02T02:23:35.797Z,1.50
2022-11-02T02:29:47.843Z,1.38
2022-11-02T02:35:55.545Z,1.35
2022-11-02T02:42:01.520Z,1.00
2022-11-02T02:48:08.599Z,1.33
2022-11-02T02:54:13.985Z,1.05
2022-11-02T03:00:18.434Z,1.58
2022-11-02T03:06:25.802Z,1.40
2022-11-02T03:12:34.951Z,1.52
2022-11-02T03:18:45.541Z,1.40
2022-11-02T03:24:54.787Z,1.45
2022-11-02T03:31:01.393Z,1.40
2022-11-02T03:43:13.033Z,1.35
2022-11-02T03:49:19.483Z,1.50
2022-11-02T03:55:26.850Z,1.70
2022-11-02T04:01:33.390Z,1.83
2022-11-02T04:07:55.468Z,1.50
2022-11-02T04:14:19.857Z,1.40
2022-11-02T04:20:24.824Z,1.25
2022-11-02T04:26:28.213Z,1.25
2022-11-02T04:32:49.406Z,1.48
2022-11-02T04:38:54.239Z,1.70
2022-11-02T04:44:57.793Z,1.52
2022-11-02T04:51:01.179Z,1.40
2022-11-02T04:57:06.228Z,1.73
2022-11-02T05:03:12.446Z,1.58
2022-11-02T05:09:16.243Z,1.70
2022-11-02T05:15:21.082Z,2.10
2022-11-02T05:21:24.524Z,1.15
2022-11-02T05:27:27.906Z,1.45
2022-11-02T05:33:33.047Z,1.38
2022-11-02T05:39:37.354Z,1.40
2022-11-02T05:45:40.751Z,1.10
2022-11-02T05:51:46.780Z,1.20
2022-11-02T05:57:52.368Z,1.30
2022-11-02T06:03:55.778Z,1.67
2022-11-02T06:10:00.495Z,2.13
2022-11-02T06:16:04.297Z,1.70
2022-11-02T06:22:11.452Z,1.13
2022-11-02T06:28:16.262Z,1.80
2022-11-02T06:34:19.639Z,1.60
2022-11-02T06:40:25.740Z,1.40
2022-11-02T06:46:31.506Z,2.10
2022-11-02T06:52:35.531Z,1.27
2022-11-02T06:58:39.269Z,1.90
2022-11-02T07:04:44.295Z,2.10
2022-11-02T07:10:47.754Z,1.60
2022-11-02T07:16:51.111Z,2.05
2022-11-02T07:22:56.539Z,2.17
2022-11-02T07:28:59.947Z,1.80
2022-11-02T07:35:03.781Z,2.00
2022-11-02T07:41:08.683Z,1.80
2022-11-02T07:47:12.054Z,1.95
2022-11-02T07:53:16.415Z,2.03
2022-11-02T07:59:22.229Z,1.67
2022-11-02T08:05:25.820Z,2.00
2022-11-02T08:11:29.270Z,2.20
2022-11-02T08:17:34.095Z,1.70
2022-11-02T08:23:37.429Z,1.67
2022-11-02T08:29:40.769Z,2.45
2022-11-02T08:35:46.255Z,1.70
2022-11-02T08:41:49.725Z,2.25
2022-11-02T08:47:53.139Z,1.65
2022-11-02T08:53:58.220Z,2.28
2022-11-02T09:00:01.634Z,3.08
2022-11-02T09:06:05.133Z,1.67
2022-11-02T09:12:11.226Z,1.90
2022-11-02T09:18:14.910Z,2.08
2022-11-02T09:24:18.324Z,1.98
2022-11-02T09:30:23.186Z,1.63
2022-11-02T09:36:26.637Z,1.67
2022-11-02T09:42:33.960Z,1.83
2022-11-02T09:48:40.704Z,1.50
2022-11-02T09:54:46.040Z,1.30
2022-11-02T10:00:50.475Z,2.10
2022-11-02T10:06:58.466Z,2.03
2022-11-02T10:13:05.270Z,1.38
2022-11-02T10:19:14.534Z,1.98
2022-11-02T10:25:19.401Z,1.73
2022-11-02T10:31:25.625Z,1.75
2022-11-02T10:37:35.649Z,2.00
2022-11-02T10:43:49.545Z,1.67
2022-11-02T10:50:11.044Z,1.50
2022-11-02T10:56:18.768Z,1.67
2022-11-02T11:02:23.576Z,1.50
2022-11-02T11:08:31.600Z,1.90
2022-11-02T11:21:03.551Z,1.17
2022-11-02T11:27:16.335Z,1.58
2022-11-02T11:33:23.012Z,1.73
2022-11-02T11:39:29.519Z,1.33
2022-11-02T11:45:34.627Z,2.00
2022-11-02T11:51:39.465Z,1.40
2022-11-02T11:57:45.855Z,1.35
2022-11-02T12:03:53.339Z,1.33
2022-11-02T12:10:03.731Z,1.20
2022-11-02T12:16:15.123Z,1.83
2022-11-02T12:22:21.341Z,1.42
2022-11-02T12:28:34.061Z,1.48
2022-11-02T12:34:53.329Z,1.20
2022-11-02T12:41:14.263Z,1.20
2022-11-02T12:47:28.002Z,1.27
2022-11-02T12:53:42.866Z,1.17
2022-11-02T12:59:46.597Z,1.25
2022-11-02T13:05:54.825Z,1.65
2022-11-02T13:12:05.417Z,1.42
2022-11-02T13:18:12.264Z,1.00
2022-11-02T13:24:19.257Z,1.23
2022-11-02T13:30:26.223Z,1.20
2022-11-02T13:36:29.696Z,1.40
2022-11-02T13:42:59.936Z,1.00
2022-11-02T13:49:05.447Z,1.15
2022-11-02T13:55:10.593Z,1.55
2022-11-02T14:01:17.988Z,1.55
2022-11-02T14:07:26.045Z,1.25
2022-11-02T14:13:44.332Z,1.60
2022-11-02T14:19:53.184Z,1.20
2022-11-02T14:25:59.365Z,1.20
2022-11-02T14:32:05.899Z,1.15
2022-11-02T14:38:18.468Z,1.40
2022-11-02T14:44:36.493Z,0.82
2022-11-02T14:50:40.226Z,1.10
2022-11-02T14:56:54.659Z,1.50
2022-11-02T15:02:59.886Z,1.15
2022-11-02T15:09:04.865Z,1.00
2022-11-02T15:15:30.029Z,1.52
2022-11-02T15:21:34.983Z,1.25
2022-11-02T15:27:38.804Z,1.65
2022-11-02T15:33:47.669Z,1.50
2022-11-02T15:39:53.647Z,1.55
2022-11-02T15:46:05.050Z,1.58
2022-11-02T15:52:18.546Z,2.55
2022-11-02T15:58:30.697Z,2.78
2022-11-02T16:04:35.568Z,2.25
2022-11-02T16:10:39.003Z,2.20
2022-11-02T16:16:49.469Z,2.20
2022-11-02T16:22:55.544Z,2.40
2022-11-02T16:28:59.963Z,2.75
2022-11-02T16:35:06.194Z,2.20
2022-11-02T16:41:10.594Z,2.33
2022-11-02T16:47:19.993Z,1.83
2022-11-02T16:53:30.223Z,1.95
2022-11-02T16:59:33.741Z,2.08
2022-11-02T17:05:37.159Z,1.88
2022-11-02T17:11:44.445Z,1.60
2022-11-02T17:17:48.115Z,2.20
2022-11-02T17:23:52.270Z,1.45
2022-11-02T17:29:57.014Z,2.30
2022-11-02T17:36:05.912Z,2.05
2022-11-02T17:42:30.062Z,2.13
2022-11-02T17:48:34.821Z,2.13
2022-11-02T17:54:38.266Z,2.08
2022-11-02T18:00:41.885Z,2.17
2022-11-02T18:06:47.248Z,2.28
2022-11-02T18:12:52.030Z,2.45
2022-11-02T18:18:55.551Z,2.17
2022-11-02T18:25:00.418Z,2.33
2022-11-02T18:31:04.158Z,2.13
2022-11-02T18:37:07.656Z,1.77
2022-11-02T18:43:12.348Z,2.50
2022-11-02T18:49:15.926Z,1.60
2022-11-02T18:55:19.954Z,2.10
2022-11-02T19:01:25.283Z,2.20
2022-11-02T19:07:46.463Z,3.00
2022-11-02T19:13:49.841Z,2.47
2022-11-02T19:19:54.839Z,3.60
2022-11-02T19:25:58.352Z,2.50
2022-11-02T19:32:02.516Z,2.42
2022-11-02T19:38:07.405Z,2.75
2022-11-02T19:44:10.792Z,2.67
2022-11-02T19:50:14.243Z,2.75
2022-11-02T19:56:19.650Z,2.42
2022-11-02T20:02:23.079Z,2.55
2022-11-02T20:08:26.934Z,2.55
2022-11-02T20:14:34.718Z,2.72
2022-11-02T20:20:38.180Z,2.22
2022-11-02T20:26:42.114Z,2.40
2022-11-02T20:32:47.915Z,1.90
2022-11-02T20:38:52.920Z,2.75
2022-11-02T20:44:56.315Z,3.08
2022-11-02T20:51:01.309Z,2.58
2022-11-02T20:57:04.971Z,2.40
2022-11-02T21:03:08.600Z,2.63
2022-11-02T21:09:13.756Z,2.55
2022-11-02T21:15:17.638Z,1.60
2022-11-02T21:21:22.510Z,2.05
2022-11-02T21:27:27.945Z,2.20
2022-11-02T21:33:32.324Z,1.48
2022-11-02T21:39:36.009Z,1.90
2022-11-02T21:45:40.753Z,1.63
2022-11-02T21:51:44.348Z,2.38
2022-11-02T21:57:48.064Z,1.30
2022-11-02T22:03:53.175Z,1.27
2022-11-02T22:09:56.596Z,2.03
2022-11-02T22:16:00.116Z,2.40
2022-11-02T22:22:09.232Z,1.60
2022-11-02T22:28:12.696Z,2.00
2022-11-02T22:34:17.413Z,2.30
2022-11-02T22:40:22.452Z,1.75
2022-11-02T22:46:26.594Z,1.63
2022-11-02T22:52:29.985Z,1.85
2022-11-02T22:58:35.247Z,1.70
2022-11-02T23:04:39.094Z,1.88
2022-11-02T23:11:00.243Z,2.10
2022-11-02T23:17:04.992Z,2.30
2022-11-02T23:23:25.828Z,2.20
2022-11-02T23:29:46.872Z,2.40
2022-11-02T23:36:09.470Z,1.85
2022-11-02T23:42:13.046Z,2.20
2022-11-02T23:54:38.752Z,2.20
